sensor_id;sensor_type;location;lat;lon;timestamp;temperature;humidity
70548;DHT22;58099;43.406;3.698;2023-04-16T00:01:39;13.30;92.70
70548;DHT22;58099;43.406;3.698;2023-04-16T00:04:05;13.30;92.50
70548;DHT22;58099;43.406;3.698;2023-04-16T00:06:31;13.30;92.60
70548;DHT22;58099;43.406;3.698;2023-04-16T00:08:57;13.30;92.70
70548;DHT22;58099;43.406;3.698;2023-04-16T00:11:23;13.20;92.40
70548;DHT22;58099;43.406;3.698;2023-04-16T00:13:48;13.20;92.60
70548;DHT22;58099;43.406;3.698;2023-04-16T00:16:14;13.20;92.80
70548;DHT22;58099;43.406;3.698;2023-04-16T00:18:40;13.20;92.90
70548;DHT22;58099;43.406;3.698;2023-04-16T00:21:06;13.10;92.80
70548;DHT22;58099;43.406;3.698;2023-04-16T00:23:32;13.10;92.80
70548;DHT22;58099;43.406;3.698;2023-04-16T00:25:58;13.10;92.90
70548;DHT22;58099;43.406;3.698;2023-04-16T00:28:25;13.10;93.00
70548;DHT22;58099;43.406;3.698;2023-04-16T00:30:51;13.10;93.10
70548;DHT22;58099;43.406;3.698;2023-04-16T00:33:17;13.00;93.10
70548;DHT22;58099;43.406;3.698;2023-04-16T00:35:47;13.00;93.10
70548;DHT22;58099;43.406;3.698;2023-04-16T00:38:13;13.00;92.90
70548;DHT22;58099;43.406;3.698;2023-04-16T00:40:39;13.00;93.20
70548;DHT22;58099;43.406;3.698;2023-04-16T00:43:04;13.00;93.20
70548;DHT22;58099;43.406;3.698;2023-04-16T00:45:30;13.00;93.40
70548;DHT22;58099;43.406;3.698;2023-04-16T00:47:57;12.90;93.40
70548;DHT22;58099;43.406;3.698;2023-04-16T00:53:28;12.90;93.60
70548;DHT22;58099;43.406;3.698;2023-04-16T00:55:54;12.90;93.80
70548;DHT22;58099;43.406;3.698;2023-04-16T00:58:20;12.90;93.70
70548;DHT22;58099;43.406;3.698;2023-04-16T01:00:46;12.90;93.60
70548;DHT22;58099;43.406;3.698;2023-04-16T01:03:12;12.80;93.70
70548;DHT22;58099;43.406;3.698;2023-04-16T01:05:37;12.80;93.80
70548;DHT22;58099;43.406;3.698;2023-04-16T01:08:03;12.80;94.00
70548;DHT22;58099;43.406;3.698;2023-04-16T01:10:29;12.80;94.30
70548;DHT22;58099;43.406;3.698;2023-04-16T01:12:55;12.80;94.00
70548;DHT22;58099;43.406;3.698;2023-04-16T01:15:21;12.80;94.00
70548;DHT22;58099;43.406;3.698;2023-04-16T01:17:46;12.70;94.50
70548;DHT22;58099;43.406;3.698;2023-04-16T01:20:12;12.70;94.50
70548;DHT22;58099;43.406;3.698;2023-04-16T01:22:38;12.70;94.40
70548;DHT22;58099;43.406;3.698;2023-04-16T01:25:04;12.70;94.30
70548;DHT22;58099;43.406;3.698;2023-04-16T01:27:30;12.80;94.50
70548;DHT22;58099;43.406;3.698;2023-04-16T01:29:56;12.80;94.60
70548;DHT22;58099;43.406;3.698;2023-04-16T01:32:22;12.70;94.70
70548;DHT22;58099;43.406;3.698;2023-04-16T01:34:48;12.70;94.50
70548;DHT22;58099;43.406;3.698;2023-04-16T01:37:14;12.70;94.50
70548;DHT22;58099;43.406;3.698;2023-04-16T01:39:40;12.70;94.40
70548;DHT22;58099;43.406;3.698;2023-04-16T01:42:05;12.60;94.20
70548;DHT22;58099;43.406;3.698;2023-04-16T01:44:31;12.60;94.40
70548;DHT22;58099;43.406;3.698;2023-04-16T01:46:57;12.60;94.40
70548;DHT22;58099;43.406;3.698;2023-04-16T01:49:22;12.60;94.80
70548;DHT22;58099;43.406;3.698;2023-04-16T01:51:48;12.60;94.80
70548;DHT22;58099;43.406;3.698;2023-04-16T01:54:13;12.60;95.00
70548;DHT22;58099;43.406;3.698;2023-04-16T01:56:39;12.60;94.80
70548;DHT22;58099;43.406;3.698;2023-04-16T01:59:05;12.50;94.70
70548;DHT22;58099;43.406;3.698;2023-04-16T02:01:31;12.60;94.80
70548;DHT22;58099;43.406;3.698;2023-04-16T02:03:57;12.50;94.90
70548;DHT22;58099;43.406;3.698;2023-04-16T02:06:22;12.50;95.00
70548;DHT22;58099;43.406;3.698;2023-04-16T02:08:48;12.50;95.00
70548;DHT22;58099;43.406;3.698;2023-04-16T02:11:14;12.40;95.00
70548;DHT22;58099;43.406;3.698;2023-04-16T02:13:40;12.30;95.20
70548;DHT22;58099;43.406;3.698;2023-04-16T02:16:06;12.30;95.10
70548;DHT22;58099;43.406;3.698;2023-04-16T02:18:31;12.20;95.00
70548;DHT22;58099;43.406;3.698;2023-04-16T02:20:58;12.20;95.40
70548;DHT22;58099;43.406;3.698;2023-04-16T02:23:26;12.10;95.50
70548;DHT22;58099;43.406;3.698;2023-04-16T02:25:52;12.10;95.50
70548;DHT22;58099;43.406;3.698;2023-04-16T02:28:18;12.20;95.40
70548;DHT22;58099;43.406;3.698;2023-04-16T02:30:44;12.10;95.60
70548;DHT22;58099;43.406;3.698;2023-04-16T02:33:11;12.10;95.60
70548;DHT22;58099;43.406;3.698;2023-04-16T02:35:37;12.10;95.50
70548;DHT22;58099;43.406;3.698;2023-04-16T02:38:04;12.00;95.30
70548;DHT22;58099;43.406;3.698;2023-04-16T02:40:31;12.00;95.40
70548;DHT22;58099;43.406;3.698;2023-04-16T02:42:56;12.00;95.90
70548;DHT22;58099;43.406;3.698;2023-04-16T02:45:22;12.00;95.70
70548;DHT22;58099;43.406;3.698;2023-04-16T02:47:48;11.90;95.80
70548;DHT22;58099;43.406;3.698;2023-04-16T02:50:14;12.00;96.00
70548;DHT22;58099;43.406;3.698;2023-04-16T02:52:40;12.00;96.20
70548;DHT22;58099;43.406;3.698;2023-04-16T02:55:06;12.00;96.20
70548;DHT22;58099;43.406;3.698;2023-04-16T02:57:33;12.00;96.20
70548;DHT22;58099;43.406;3.698;2023-04-16T02:59:58;12.00;96.20
70548;DHT22;58099;43.406;3.698;2023-04-16T03:02:24;12.00;96.20
70548;DHT22;58099;43.406;3.698;2023-04-16T03:04:52;12.00;96.10
70548;DHT22;58099;43.406;3.698;2023-04-16T03:07:17;12.00;96.40
70548;DHT22;58099;43.406;3.698;2023-04-16T03:09:44;12.00;96.40
70548;DHT22;58099;43.406;3.698;2023-04-16T03:12:09;12.00;96.50
70548;DHT22;58099;43.406;3.698;2023-04-16T03:14:35;12.00;96.50
70548;DHT22;58099;43.406;3.698;2023-04-16T03:17:01;12.10;96.30
70548;DHT22;58099;43.406;3.698;2023-04-16T03:19:26;12.10;96.30
70548;DHT22;58099;43.406;3.698;2023-04-16T03:21:52;12.10;96.30
70548;DHT22;58099;43.406;3.698;2023-04-16T03:24:18;12.10;96.30
70548;DHT22;58099;43.406;3.698;2023-04-16T03:26:43;12.10;96.30
70548;DHT22;58099;43.406;3.698;2023-04-16T03:29:09;12.10;96.50
70548;DHT22;58099;43.406;3.698;2023-04-16T03:31:35;12.00;96.50
70548;DHT22;58099;43.406;3.698;2023-04-16T03:34:00;12.00;96.40
70548;DHT22;58099;43.406;3.698;2023-04-16T03:36:26;12.00;96.30
70548;DHT22;58099;43.406;3.698;2023-04-16T03:38:52;12.00;96.30
70548;DHT22;58099;43.406;3.698;2023-04-16T03:41:17;11.90;96.60
70548;DHT22;58099;43.406;3.698;2023-04-16T03:43:43;11.90;96.70
70548;DHT22;58099;43.406;3.698;2023-04-16T03:46:09;11.90;96.50
70548;DHT22;58099;43.406;3.698;2023-04-16T03:48:35;11.90;96.60
70548;DHT22;58099;43.406;3.698;2023-04-16T03:51:01;11.90;96.60
70548;DHT22;58099;43.406;3.698;2023-04-16T03:53:27;11.80;96.70
70548;DHT22;58099;43.406;3.698;2023-04-16T03:55:53;11.80;96.80
70548;DHT22;58099;43.406;3.698;2023-04-16T03:58:19;11.80;96.70
70548;DHT22;58099;43.406;3.698;2023-04-16T04:00:45;11.70;96.60
70548;DHT22;58099;43.406;3.698;2023-04-16T04:03:11;11.70;96.70
70548;DHT22;58099;43.406;3.698;2023-04-16T04:05:41;11.60;96.80
70548;DHT22;58099;43.406;3.698;2023-04-16T04:08:07;11.60;96.90
70548;DHT22;58099;43.406;3.698;2023-04-16T04:10:33;11.50;97.00
70548;DHT22;58099;43.406;3.698;2023-04-16T04:13:04;11.50;97.10
70548;DHT22;58099;43.406;3.698;2023-04-16T04:15:30;11.50;97.30
70548;DHT22;58099;43.406;3.698;2023-04-16T04:17:56;11.50;97.40
70548;DHT22;58099;43.406;3.698;2023-04-16T04:20:22;11.40;97.40
70548;DHT22;58099;43.406;3.698;2023-04-16T04:22:48;11.40;97.40
70548;DHT22;58099;43.406;3.698;2023-04-16T04:25:14;11.40;97.50
70548;DHT22;58099;43.406;3.698;2023-04-16T04:27:40;11.40;97.50
70548;DHT22;58099;43.406;3.698;2023-04-16T04:30:06;11.30;97.60
70548;DHT22;58099;43.406;3.698;2023-04-16T04:32:32;11.30;97.70
70548;DHT22;58099;43.406;3.698;2023-04-16T04:35:00;11.30;97.70
70548;DHT22;58099;43.406;3.698;2023-04-16T04:37:26;11.30;97.90
70548;DHT22;58099;43.406;3.698;2023-04-16T04:39:52;11.30;97.80
70548;DHT22;58099;43.406;3.698;2023-04-16T04:42:18;11.20;97.80
70548;DHT22;58099;43.406;3.698;2023-04-16T04:44:44;11.20;97.90
70548;DHT22;58099;43.406;3.698;2023-04-16T04:47:10;11.20;97.90
70548;DHT22;58099;43.406;3.698;2023-04-16T04:49:36;11.30;97.90
70548;DHT22;58099;43.406;3.698;2023-04-16T04:52:01;11.20;97.90
70548;DHT22;58099;43.406;3.698;2023-04-16T04:54:29;11.20;98.00
70548;DHT22;58099;43.406;3.698;2023-04-16T04:56:55;11.20;98.00
70548;DHT22;58099;43.406;3.698;2023-04-16T04:59:21;11.20;98.10
70548;DHT22;58099;43.406;3.698;2023-04-16T05:01:47;11.20;98.20
70548;DHT22;58099;43.406;3.698;2023-04-16T05:04:13;11.10;98.40
70548;DHT22;58099;43.406;3.698;2023-04-16T05:06:38;11.10;98.20
70548;DHT22;58099;43.406;3.698;2023-04-16T05:09:04;11.10;98.30
70548;DHT22;58099;43.406;3.698;2023-04-16T05:11:30;11.10;98.30
70548;DHT22;58099;43.406;3.698;2023-04-16T05:13:56;11.10;98.40
70548;DHT22;58099;43.406;3.698;2023-04-16T05:16:21;11.10;98.50
70548;DHT22;58099;43.406;3.698;2023-04-16T05:18:47;11.10;98.50
70548;DHT22;58099;43.406;3.698;2023-04-16T05:21:12;11.20;98.50
70548;DHT22;58099;43.406;3.698;2023-04-16T05:23:38;11.20;98.50
70548;DHT22;58099;43.406;3.698;2023-04-16T05:26:04;11.20;98.50
70548;DHT22;58099;43.406;3.698;2023-04-16T05:28:30;11.20;98.50
70548;DHT22;58099;43.406;3.698;2023-04-16T05:30:55;11.20;98.60
70548;DHT22;58099;43.406;3.698;2023-04-16T05:33:21;11.30;98.60
70548;DHT22;58099;43.406;3.698;2023-04-16T05:35:47;11.30;98.60
70548;DHT22;58099;43.406;3.698;2023-04-16T05:38:12;11.30;98.60
70548;DHT22;58099;43.406;3.698;2023-04-16T05:40:38;11.30;98.40
70548;DHT22;58099;43.406;3.698;2023-04-16T05:43:04;11.40;98.40
70548;DHT22;58099;43.406;3.698;2023-04-16T05:45:29;11.40;98.40
70548;DHT22;58099;43.406;3.698;2023-04-16T05:47:57;11.40;98.50
70548;DHT22;58099;43.406;3.698;2023-04-16T05:50:23;11.40;98.40
70548;DHT22;58099;43.406;3.698;2023-04-16T05:52:49;11.50;98.50
70548;DHT22;58099;43.406;3.698;2023-04-16T05:55:14;11.50;98.40
70548;DHT22;58099;43.406;3.698;2023-04-16T05:57:41;11.50;98.40
70548;DHT22;58099;43.406;3.698;2023-04-16T06:00:08;11.50;98.40
70548;DHT22;58099;43.406;3.698;2023-04-16T06:02:34;11.50;98.30
70548;DHT22;58099;43.406;3.698;2023-04-16T06:05:00;11.60;98.30
70548;DHT22;58099;43.406;3.698;2023-04-16T06:07:26;11.70;98.20
70548;DHT22;58099;43.406;3.698;2023-04-16T06:09:51;11.80;98.10
70548;DHT22;58099;43.406;3.698;2023-04-16T06:12:17;11.80;98.00
70548;DHT22;58099;43.406;3.698;2023-04-16T06:14:43;11.90;97.90
70548;DHT22;58099;43.406;3.698;2023-04-16T06:17:08;12.00;97.90
70548;DHT22;58099;43.406;3.698;2023-04-16T06:19:34;12.10;97.60
70548;DHT22;58099;43.406;3.698;2023-04-16T06:22:00;12.20;97.50
70548;DHT22;58099;43.406;3.698;2023-04-16T06:24:26;12.30;97.50
70548;DHT22;58099;43.406;3.698;2023-04-16T06:26:52;12.40;97.40
70548;DHT22;58099;43.406;3.698;2023-04-16T06:29:18;12.50;97.30
70548;DHT22;58099;43.406;3.698;2023-04-16T06:31:44;12.80;97.40
70548;DHT22;58099;43.406;3.698;2023-04-16T06:34:10;13.10;97.00
70548;DHT22;58099;43.406;3.698;2023-04-16T06:36:35;13.20;96.40
70548;DHT22;58099;43.406;3.698;2023-04-16T06:39:02;13.30;96.00
70548;DHT22;58099;43.406;3.698;2023-04-16T06:41:27;13.50;96.30
70548;DHT22;58099;43.406;3.698;2023-04-16T06:43:53;13.60;95.70
70548;DHT22;58099;43.406;3.698;2023-04-16T06:46:19;13.50;95.60
70548;DHT22;58099;43.406;3.698;2023-04-16T06:48:44;13.50;95.70
70548;DHT22;58099;43.406;3.698;2023-04-16T06:51:10;13.50;95.80
70548;DHT22;58099;43.406;3.698;2023-04-16T06:53:37;13.50;95.80
70548;DHT22;58099;43.406;3.698;2023-04-16T06:56:03;13.70;95.90
70548;DHT22;58099;43.406;3.698;2023-04-16T06:58:29;14.00;95.40
70548;DHT22;58099;43.406;3.698;2023-04-16T07:00:54;14.10;95.10
70548;DHT22;58099;43.406;3.698;2023-04-16T07:03:20;14.20;94.90
70548;DHT22;58099;43.406;3.698;2023-04-16T07:05:46;14.20;94.90
70548;DHT22;58099;43.406;3.698;2023-04-16T07:08:11;14.40;94.70
70548;DHT22;58099;43.406;3.698;2023-04-16T07:10:37;14.60;94.40
70548;DHT22;58099;43.406;3.698;2023-04-16T07:13:03;14.60;94.20
70548;DHT22;58099;43.406;3.698;2023-04-16T07:15:28;14.70;94.20
70548;DHT22;58099;43.406;3.698;2023-04-16T07:17:54;14.90;94.30
70548;DHT22;58099;43.406;3.698;2023-04-16T07:20:20;14.80;93.70
70548;DHT22;58099;43.406;3.698;2023-04-16T07:22:45;15.00;93.80
70548;DHT22;58099;43.406;3.698;2023-04-16T07:25:11;15.20;93.70
70548;DHT22;58099;43.406;3.698;2023-04-16T07:27:37;15.20;93.50
70548;DHT22;58099;43.406;3.698;2023-04-16T07:30:03;15.20;93.10
70548;DHT22;58099;43.406;3.698;2023-04-16T07:32:28;15.30;92.50
70548;DHT22;58099;43.406;3.698;2023-04-16T07:34:55;15.50;92.70
70548;DHT22;58099;43.406;3.698;2023-04-16T07:37:20;15.60;92.80
70548;DHT22;58099;43.406;3.698;2023-04-16T07:39:47;15.80;92.50
70548;DHT22;58099;43.406;3.698;2023-04-16T07:42:13;15.80;92.30
70548;DHT22;58099;43.406;3.698;2023-04-16T07:44:38;15.80;92.00
70548;DHT22;58099;43.406;3.698;2023-04-16T07:47:04;16.00;91.90
70548;DHT22;58099;43.406;3.698;2023-04-16T07:49:30;16.20;91.80
70548;DHT22;58099;43.406;3.698;2023-04-16T07:51:56;16.20;91.80
70548;DHT22;58099;43.406;3.698;2023-04-16T07:54:21;16.40;91.70
70548;DHT22;58099;43.406;3.698;2023-04-16T07:56:47;16.40;91.20
70548;DHT22;58099;43.406;3.698;2023-04-16T07:59:13;16.50;90.90
70548;DHT22;58099;43.406;3.698;2023-04-16T08:01:38;16.60;90.80
70548;DHT22;58099;43.406;3.698;2023-04-16T08:04:04;16.60;90.90
70548;DHT22;58099;43.406;3.698;2023-04-16T08:06:30;16.90;91.10
70548;DHT22;58099;43.406;3.698;2023-04-16T08:08:55;17.00;90.30
70548;DHT22;58099;43.406;3.698;2023-04-16T08:11:21;17.10;90.50
70548;DHT22;58099;43.406;3.698;2023-04-16T08:13:47;17.30;90.60
70548;DHT22;58099;43.406;3.698;2023-04-16T08:16:14;17.40;90.50
70548;DHT22;58099;43.406;3.698;2023-04-16T08:18:39;17.60;90.50
70548;DHT22;58099;43.406;3.698;2023-04-16T08:21:05;17.60;89.30
70548;DHT22;58099;43.406;3.698;2023-04-16T08:23:31;17.60;89.10
70548;DHT22;58099;43.406;3.698;2023-04-16T08:25:57;17.60;88.70
70548;DHT22;58099;43.406;3.698;2023-04-16T08:28:23;17.60;87.80
70548;DHT22;58099;43.406;3.698;2023-04-16T08:30:49;17.70;87.50
70548;DHT22;58099;43.406;3.698;2023-04-16T08:33:14;17.90;87.60
70548;DHT22;58099;43.406;3.698;2023-04-16T08:35:40;18.00;88.60
70548;DHT22;58099;43.406;3.698;2023-04-16T08:38:06;18.20;87.60
70548;DHT22;58099;43.406;3.698;2023-04-16T08:40:34;18.30;87.20
70548;DHT22;58099;43.406;3.698;2023-04-16T08:43:05;18.40;88.20
70548;DHT22;58099;43.406;3.698;2023-04-16T08:45:34;18.40;86.10
70548;DHT22;58099;43.406;3.698;2023-04-16T08:48:01;18.50;86.50
70548;DHT22;58099;43.406;3.698;2023-04-16T08:50:29;18.60;85.90
70548;DHT22;58099;43.406;3.698;2023-04-16T08:52:59;18.60;86.20
70548;DHT22;58099;43.406;3.698;2023-04-16T08:55:36;18.70;86.50
70548;DHT22;58099;43.406;3.698;2023-04-16T08:58:11;18.90;86.00
70548;DHT22;58099;43.406;3.698;2023-04-16T09:00:39;19.00;85.40
70548;DHT22;58099;43.406;3.698;2023-04-16T09:03:08;19.20;85.60
70548;DHT22;58099;43.406;3.698;2023-04-16T09:05:35;19.20;85.40
70548;DHT22;58099;43.406;3.698;2023-04-16T09:08:00;19.40;84.00
70548;DHT22;58099;43.406;3.698;2023-04-16T09:10:26;19.50;83.50
70548;DHT22;58099;43.406;3.698;2023-04-16T09:12:55;19.60;83.40
70548;DHT22;58099;43.406;3.698;2023-04-16T09:15:22;19.80;83.00
70548;DHT22;58099;43.406;3.698;2023-04-16T09:17:48;19.90;82.50
70548;DHT22;58099;43.406;3.698;2023-04-16T09:20:14;20.00;82.50
70548;DHT22;58099;43.406;3.698;2023-04-16T09:22:40;20.10;82.10
70548;DHT22;58099;43.406;3.698;2023-04-16T09:25:08;20.30;81.60
70548;DHT22;58099;43.406;3.698;2023-04-16T09:27:35;20.40;81.40
70548;DHT22;58099;43.406;3.698;2023-04-16T09:30:26;20.30;80.90
70548;DHT22;58099;43.406;3.698;2023-04-16T09:35:54;20.40;80.40
70548;DHT22;58099;43.406;3.698;2023-04-16T09:38:20;20.70;78.50
70548;DHT22;58099;43.406;3.698;2023-04-16T09:40:47;20.90;78.40
70548;DHT22;58099;43.406;3.698;2023-04-16T09:43:17;21.00;77.30
70548;DHT22;58099;43.406;3.698;2023-04-16T09:45:53;21.10;77.40
70548;DHT22;58099;43.406;3.698;2023-04-16T09:48:29;21.10;76.70
70548;DHT22;58099;43.406;3.698;2023-04-16T09:50:56;21.10;77.60
70548;DHT22;58099;43.406;3.698;2023-04-16T09:53:27;20.90;77.20
70548;DHT22;58099;43.406;3.698;2023-04-16T09:56:04;20.80;77.50
70548;DHT22;58099;43.406;3.698;2023-04-16T09:58:30;21.10;77.90
70548;DHT22;58099;43.406;3.698;2023-04-16T10:01:05;21.30;78.60
70548;DHT22;58099;43.406;3.698;2023-04-16T10:03:32;21.40;80.20
70548;DHT22;58099;43.406;3.698;2023-04-16T10:06:00;21.30;79.50
70548;DHT22;58099;43.406;3.698;2023-04-16T10:08:27;21.30;78.20
70548;DHT22;58099;43.406;3.698;2023-04-16T10:10:53;21.50;77.60
70548;DHT22;58099;43.406;3.698;2023-04-16T10:13:20;21.50;79.00
70548;DHT22;58099;43.406;3.698;2023-04-16T10:15:46;21.70;78.80
70548;DHT22;58099;43.406;3.698;2023-04-16T10:18:13;21.70;77.60
70548;DHT22;58099;43.406;3.698;2023-04-16T10:20:39;22.00;77.80
70548;DHT22;58099;43.406;3.698;2023-04-16T10:23:05;22.10;76.70
70548;DHT22;58099;43.406;3.698;2023-04-16T10:25:31;22.10;76.40
70548;DHT22;58099;43.406;3.698;2023-04-16T10:27:57;22.30;75.80
70548;DHT22;58099;43.406;3.698;2023-04-16T10:30:24;22.30;76.20
70548;DHT22;58099;43.406;3.698;2023-04-16T10:32:51;22.40;76.60
70548;DHT22;58099;43.406;3.698;2023-04-16T10:35:20;22.50;78.10
70548;DHT22;58099;43.406;3.698;2023-04-16T10:37:46;22.50;75.60
70548;DHT22;58099;43.406;3.698;2023-04-16T10:40:25;22.80;75.00
70548;DHT22;58099;43.406;3.698;2023-04-16T10:42:55;22.60;72.50
70548;DHT22;58099;43.406;3.698;2023-04-16T10:45:29;22.90;74.60
70548;DHT22;58099;43.406;3.698;2023-04-16T10:47:56;22.80;76.50
70548;DHT22;58099;43.406;3.698;2023-04-16T10:50:22;22.90;77.00
70548;DHT22;58099;43.406;3.698;2023-04-16T10:52:48;22.70;75.20
70548;DHT22;58099;43.406;3.698;2023-04-16T10:55:17;22.70;72.20
70548;DHT22;58099;43.406;3.698;2023-04-16T10:57:43;22.50;72.10
70548;DHT22;58099;43.406;3.698;2023-04-16T11:00:21;22.40;73.00
70548;DHT22;58099;43.406;3.698;2023-04-16T11:02:52;22.40;72.60
70548;DHT22;58099;43.406;3.698;2023-04-16T11:05:22;22.60;72.60
70548;DHT22;58099;43.406;3.698;2023-04-16T11:07:47;22.80;72.50
70548;DHT22;58099;43.406;3.698;2023-04-16T11:10:13;22.90;72.10
70548;DHT22;58099;43.406;3.698;2023-04-16T11:12:45;23.10;69.90
70548;DHT22;58099;43.406;3.698;2023-04-16T11:15:15;23.50;70.30
70548;DHT22;58099;43.406;3.698;2023-04-16T11:17:45;23.70;69.30
70548;DHT22;58099;43.406;3.698;2023-04-16T11:20:21;23.70;69.50
70548;DHT22;58099;43.406;3.698;2023-04-16T11:22:51;23.80;68.00
70548;DHT22;58099;43.406;3.698;2023-04-16T11:25:28;23.60;68.20
70548;DHT22;58099;43.406;3.698;2023-04-16T11:27:54;23.60;68.50
70548;DHT22;58099;43.406;3.698;2023-04-16T11:30:34;23.80;67.40
70548;DHT22;58099;43.406;3.698;2023-04-16T11:33:10;23.80;67.60
70548;DHT22;58099;43.406;3.698;2023-04-16T11:35:36;23.70;65.70
70548;DHT22;58099;43.406;3.698;2023-04-16T11:38:05;23.90;67.00
70548;DHT22;58099;43.406;3.698;2023-04-16T11:40:32;23.60;67.80
70548;DHT22;58099;43.406;3.698;2023-04-16T11:43:12;23.50;67.20
70548;DHT22;58099;43.406;3.698;2023-04-16T11:45:55;23.60;66.50
70548;DHT22;58099;43.406;3.698;2023-04-16T11:48:21;24.00;66.20
70548;DHT22;58099;43.406;3.698;2023-04-16T11:50:56;24.10;68.10
70548;DHT22;58099;43.406;3.698;2023-04-16T11:53:22;24.10;68.40
70548;DHT22;58099;43.406;3.698;2023-04-16T11:55:48;24.00;66.10
70548;DHT22;58099;43.406;3.698;2023-04-16T11:58:14;24.10;67.40
70548;DHT22;58099;43.406;3.698;2023-04-16T12:00:40;24.10;65.60
70548;DHT22;58099;43.406;3.698;2023-04-16T12:03:07;24.30;66.10
70548;DHT22;58099;43.406;3.698;2023-04-16T12:05:37;24.20;65.30
70548;DHT22;58099;43.406;3.698;2023-04-16T12:08:11;24.10;66.10
70548;DHT22;58099;43.406;3.698;2023-04-16T12:10:54;24.20;66.30
70548;DHT22;58099;43.406;3.698;2023-04-16T12:13:21;24.20;64.90
70548;DHT22;58099;43.406;3.698;2023-04-16T12:15:49;24.00;67.40
70548;DHT22;58099;43.406;3.698;2023-04-16T12:18:20;23.60;67.20
70548;DHT22;58099;43.406;3.698;2023-04-16T12:20:48;23.80;65.20
70548;DHT22;58099;43.406;3.698;2023-04-16T12:23:26;23.90;65.20
70548;DHT22;58099;43.406;3.698;2023-04-16T12:25:52;23.90;64.70
70548;DHT22;58099;43.406;3.698;2023-04-16T12:28:32;24.10;64.80
70548;DHT22;58099;43.406;3.698;2023-04-16T12:30:58;24.00;64.80
70548;DHT22;58099;43.406;3.698;2023-04-16T12:33:24;23.70;65.50
70548;DHT22;58099;43.406;3.698;2023-04-16T12:35:49;23.90;64.60
70548;DHT22;58099;43.406;3.698;2023-04-16T12:38:15;24.20;64.20
70548;DHT22;58099;43.406;3.698;2023-04-16T12:40:41;24.30;65.60
70548;DHT22;58099;43.406;3.698;2023-04-16T12:43:08;24.10;63.80
70548;DHT22;58099;43.406;3.698;2023-04-16T12:45:34;23.90;64.90
70548;DHT22;58099;43.406;3.698;2023-04-16T12:48:00;23.90;65.70
70548;DHT22;58099;43.406;3.698;2023-04-16T12:50:27;23.90;65.00
70548;DHT22;58099;43.406;3.698;2023-04-16T12:52:54;23.80;65.00
70548;DHT22;58099;43.406;3.698;2023-04-16T12:55:20;23.60;65.80
70548;DHT22;58099;43.406;3.698;2023-04-16T12:57:46;23.60;65.30
70548;DHT22;58099;43.406;3.698;2023-04-16T13:00:13;23.50;64.20
70548;DHT22;58099;43.406;3.698;2023-04-16T13:02:40;23.40;64.60
70548;DHT22;58099;43.406;3.698;2023-04-16T13:05:06;23.50;66.10
70548;DHT22;58099;43.406;3.698;2023-04-16T13:07:33;23.70;64.40
70548;DHT22;58099;43.406;3.698;2023-04-16T13:09:59;24.00;63.90
70548;DHT22;58099;43.406;3.698;2023-04-16T13:12:26;23.90;62.80
70548;DHT22;58099;43.406;3.698;2023-04-16T13:14:52;23.90;63.80
70548;DHT22;58099;43.406;3.698;2023-04-16T13:17:19;23.90;65.00
70548;DHT22;58099;43.406;3.698;2023-04-16T13:19:45;23.90;63.50
70548;DHT22;58099;43.406;3.698;2023-04-16T13:22:11;23.80;62.50
70548;DHT22;58099;43.406;3.698;2023-04-16T13:24:37;23.90;63.60
70548;DHT22;58099;43.406;3.698;2023-04-16T13:27:03;23.80;62.60
70548;DHT22;58099;43.406;3.698;2023-04-16T13:29:29;23.70;62.60
70548;DHT22;58099;43.406;3.698;2023-04-16T13:31:55;23.80;61.70
70548;DHT22;58099;43.406;3.698;2023-04-16T13:34:21;24.00;61.40
70548;DHT22;58099;43.406;3.698;2023-04-16T13:36:47;23.90;62.10
70548;DHT22;58099;43.406;3.698;2023-04-16T13:39:13;23.50;62.90
70548;DHT22;58099;43.406;3.698;2023-04-16T13:41:40;23.50;63.00
70548;DHT22;58099;43.406;3.698;2023-04-16T13:44:06;23.60;62.00
70548;DHT22;58099;43.406;3.698;2023-04-16T13:46:32;23.30;63.00
70548;DHT22;58099;43.406;3.698;2023-04-16T13:48:58;23.20;63.10
70548;DHT22;58099;43.406;3.698;2023-04-16T13:51:24;23.10;63.80
70548;DHT22;58099;43.406;3.698;2023-04-16T13:53:53;23.30;63.40
70548;DHT22;58099;43.406;3.698;2023-04-16T13:56:19;23.30;62.70
70548;DHT22;58099;43.406;3.698;2023-04-16T13:58:44;23.60;62.50
70548;DHT22;58099;43.406;3.698;2023-04-16T14:01:10;23.60;61.80
70548;DHT22;58099;43.406;3.698;2023-04-16T14:03:36;23.60;62.10
70548;DHT22;58099;43.406;3.698;2023-04-16T14:06:03;23.70;61.50
70548;DHT22;58099;43.406;3.698;2023-04-16T14:08:29;23.90;60.90
70548;DHT22;58099;43.406;3.698;2023-04-16T14:10:56;23.90;60.10
70548;DHT22;58099;43.406;3.698;2023-04-16T14:13:22;23.90;60.10
70548;DHT22;58099;43.406;3.698;2023-04-16T14:15:48;23.80;60.20
70548;DHT22;58099;43.406;3.698;2023-04-16T14:18:14;23.60;59.90
70548;DHT22;58099;43.406;3.698;2023-04-16T14:20:39;23.70;61.30
70548;DHT22;58099;43.406;3.698;2023-04-16T14:23:05;23.90;61.70
70548;DHT22;58099;43.406;3.698;2023-04-16T14:25:32;23.90;60.50
70548;DHT22;58099;43.406;3.698;2023-04-16T14:27:58;23.70;60.30
70548;DHT22;58099;43.406;3.698;2023-04-16T14:30:25;23.70;61.40
70548;DHT22;58099;43.406;3.698;2023-04-16T14:32:50;23.60;60.80
70548;DHT22;58099;43.406;3.698;2023-04-16T14:35:16;23.60;60.30
70548;DHT22;58099;43.406;3.698;2023-04-16T14:37:44;23.60;61.10
70548;DHT22;58099;43.406;3.698;2023-04-16T14:40:11;23.40;60.30
70548;DHT22;58099;43.406;3.698;2023-04-16T14:42:38;23.20;60.10
70548;DHT22;58099;43.406;3.698;2023-04-16T14:45:05;23.20;60.00
70548;DHT22;58099;43.406;3.698;2023-04-16T14:47:31;23.20;60.00
70548;DHT22;58099;43.406;3.698;2023-04-16T14:49:58;23.10;59.20
70548;DHT22;58099;43.406;3.698;2023-04-16T14:52:24;23.20;60.20
70548;DHT22;58099;43.406;3.698;2023-04-16T14:54:50;23.10;60.40
70548;DHT22;58099;43.406;3.698;2023-04-16T14:57:16;23.10;62.10
70548;DHT22;58099;43.406;3.698;2023-04-16T14:59:42;23.20;61.20
70548;DHT22;58099;43.406;3.698;2023-04-16T15:02:08;23.40;61.10
70548;DHT22;58099;43.406;3.698;2023-04-16T15:04:35;23.30;58.80
70548;DHT22;58099;43.406;3.698;2023-04-16T15:07:00;23.10;61.10
70548;DHT22;58099;43.406;3.698;2023-04-16T15:09:26;23.20;62.00
70548;DHT22;58099;43.406;3.698;2023-04-16T15:11:52;23.20;61.90
70548;DHT22;58099;43.406;3.698;2023-04-16T15:14:18;23.40;61.90
70548;DHT22;58099;43.406;3.698;2023-04-16T15:16:44;23.30;61.10
70548;DHT22;58099;43.406;3.698;2023-04-16T15:19:11;23.30;61.60
70548;DHT22;58099;43.406;3.698;2023-04-16T15:21:36;23.40;61.50
70548;DHT22;58099;43.406;3.698;2023-04-16T15:24:02;23.20;62.20
70548;DHT22;58099;43.406;3.698;2023-04-16T15:26:29;23.10;63.50
70548;DHT22;58099;43.406;3.698;2023-04-16T15:28:55;22.90;62.40
70548;DHT22;58099;43.406;3.698;2023-04-16T15:31:21;22.60;61.50
70548;DHT22;58099;43.406;3.698;2023-04-16T15:33:47;22.40;62.20